Airfield :
LOGIN :

Register | Disclaimer

   EN    FR    IT 

 










Legend :    VFR   Marginal VFR   IFR   Intensive IFR   Very Intensive IFR
Visi :
Ceiling :
>= 8 km
>= 3000ft
5 to 8 km
1000 to 3000 ft
1500m to 5 km
500 to 1000 ft
800 to 1500m
200 to 500 ft
< 800m
< 200 ft
Symbols :   Thunderstorms  Fog  Heavy snow  Heavy precipitations  Wind > 20 kt
SIGMETs :     Misc.  Thunderstorms  Icing  Turbulence  Mountain Waves  Volcanic Ashes






- Airport Elevation : 3006 ft
- IATA code : LEN


LELN - Leon

CURRENT METAR :
  • 260500Z AUTO 36003KT 330V030 1700 1300SW BR BKN003 BKN008 04/04 Q1020

EXPIRED METARs :
  • 260430Z AUTO 02003KT 340V040 1700 1400SW BR VV004 04/04 Q1020
  • 260400Z AUTO 01003KT 340V050 1200 1100NE R23/1100N R05/1500D BR BKN003 04/04 Q1020
  • 260330Z AUTO 01003KT 340V050 1300 0900NE R23/0800N R05/1600N -RA BR BCFG VV004 04/04 Q1020
  • 260300Z AUTO 36003KT 330V030 1700 -RA BR OVC003 05/05 Q1020
  • 260230Z AUTO 36004KT 330V030 2700 BR OVC004 04/04 Q1020

TAF TAF LELN
Valid from the 26 at 03:00 until the 27 at 03:00 UTC


260200Z 2603/2703 VRB05KT 9999 BKN012 TX13/2615Z TN04/2606Z
TEMPO 2603/2612 1500 BCFG BR BKN004
PROB40
TEMPO 2603/2611 0300 FG VV001
PROB40
TEMPO 2617/2703 1500 BCFG BR BKN004
PROB30
TEMPO 2618/2703 0200 FG VV001



MET'MAP, your aeronautical weather chart ! - Copyright ORBIFLY December 2007 - Disclaimer

ORBIFLY MET'MAP TEAM :

Programming & Development : Alexandra Zaïnal
Concept & original design : Baudouin d'Aumeries
Assistance for programming : Marc-Olivier Méhu
Technical & hardware support : Manuel Goepfert

Contact : metmap@orbifly.com




SOURCES & CREDITS :

   NOAA